createdAt,value
2022-10-18T00:00:15.958Z,4.93
2022-10-18T00:01:25.539Z,5.32
2022-10-18T00:02:37.033Z,5.28
2022-10-18T00:04:01.657Z,5.07
2022-10-18T00:05:06.534Z,4.60
2022-10-18T00:06:15.673Z,4.35
2022-10-18T00:07:24.249Z,5.78
2022-10-18T00:08:45.135Z,4.80
2022-10-18T00:09:53.501Z,4.93
2022-10-18T00:11:07.667Z,4.93
2022-10-18T00:12:15.798Z,4.80
2022-10-18T00:15:05.962Z,4.47
2022-10-18T00:16:24.289Z,5.25
2022-10-18T00:17:26.710Z,4.82
2022-10-18T00:18:44.748Z,4.40
2022-10-18T00:19:53.152Z,4.97
2022-10-18T00:21:17.023Z,4.70
2022-10-18T00:22:26.586Z,5.05
2022-10-18T00:26:56.642Z,4.90
2022-10-18T00:28:15.142Z,4.88
2022-10-18T00:29:44.180Z,4.85
2022-10-18T00:30:46.600Z,4.68
2022-10-18T00:32:03.000Z,5.10
2022-10-18T00:33:05.516Z,4.65
2022-10-18T00:34:17.346Z,5.00
2022-10-18T00:35:34.481Z,6.00
2022-10-18T00:36:42.352Z,6.10
2022-10-18T00:37:45.562Z,5.80
2022-10-18T00:38:54.486Z,5.35
2022-10-18T00:41:45.590Z,5.72
2022-10-18T00:42:55.662Z,6.03
2022-10-18T00:44:15.424Z,5.57
2022-10-18T00:45:25.555Z,5.13
2022-10-18T00:46:34.354Z,5.10
2022-10-18T00:47:36.905Z,5.13
2022-10-18T00:48:49.773Z,5.63
2022-10-18T00:50:05.806Z,5.03
2022-10-18T00:51:43.296Z,5.60
2022-10-18T00:53:23.005Z,5.00
2022-10-18T00:54:56.154Z,4.72
2022-10-18T00:59:03.704Z,4.47
2022-10-18T01:02:01.979Z,4.78
2022-10-18T01:03:04.719Z,5.95
2022-10-18T01:04:08.132Z,5.00
2022-10-18T01:05:54.450Z,4.90
2022-10-18T01:07:23.788Z,4.25
2022-10-18T01:09:14.606Z,4.70
2022-10-18T01:11:04.203Z,4.85
2022-10-18T01:12:36.756Z,4.82
2022-10-18T01:14:04.034Z,5.20
2022-10-18T01:15:17.916Z,5.35
2022-10-18T01:17:05.204Z,4.63
2022-10-18T01:18:53.945Z,4.40
2022-10-18T01:20:36.426Z,4.60
2022-10-18T01:22:05.993Z,4.35
2022-10-18T01:24:16.714Z,4.70
2022-10-18T01:28:24.376Z,4.28
2022-10-18T01:30:05.010Z,4.18
2022-10-18T01:31:36.037Z,4.30
2022-10-18T01:33:35.990Z,4.85
2022-10-18T01:34:55.182Z,4.03
2022-10-18T01:38:24.502Z,4.85
2022-10-18T01:39:37.744Z,4.93
2022-10-18T01:40:45.277Z,4.30
2022-10-18T01:43:22.131Z,4.97
2022-10-18T01:44:34.551Z,4.55
2022-10-18T01:45:37.337Z,4.45
2022-10-18T01:46:45.667Z,4.78
2022-10-18T01:47:52.690Z,4.30
2022-10-18T01:48:57.563Z,4.45
2022-10-18T01:50:13.895Z,4.35
2022-10-18T01:51:36.795Z,4.30
2022-10-18T01:53:04.040Z,4.32
2022-10-18T01:54:14.875Z,4.40
2022-10-18T01:55:45.827Z,4.35
2022-10-18T01:57:14.397Z,3.88
2022-10-18T01:58:35.546Z,3.83
2022-10-18T02:00:25.625Z,3.90
2022-10-18T02:01:56.177Z,3.80
2022-10-18T02:03:25.450Z,4.13
2022-10-18T02:04:47.117Z,4.25
2022-10-18T02:06:05.808Z,4.50
2022-10-18T02:07:36.255Z,3.95
2022-10-18T02:08:52.734Z,4.15
2022-10-18T02:11:21.538Z,3.90
2022-10-18T02:12:46.500Z,4.72
2022-10-18T02:14:16.751Z,4.20
2022-10-18T02:15:33.411Z,4.50
2022-10-18T02:18:42.491Z,4.63
2022-10-18T02:19:57.231Z,4.05
2022-10-18T02:21:11.574Z,4.45
2022-10-18T02:22:17.390Z,4.30
2022-10-18T02:23:25.487Z,3.72
2022-10-18T02:24:44.960Z,4.90
2022-10-18T02:25:55.176Z,4.10
2022-10-18T02:29:04.914Z,4.40
2022-10-18T02:30:24.059Z,4.50
2022-10-18T02:31:32.939Z,4.47
2022-10-18T02:32:45.344Z,4.10
2022-10-18T02:34:13.912Z,4.35
2022-10-18T02:35:27.135Z,3.90
2022-10-18T02:36:42.758Z,4.68
2022-10-18T02:38:04.266Z,4.82
2022-10-18T02:39:12.288Z,4.13
2022-10-18T02:40:16.607Z,4.15
2022-10-18T02:41:26.286Z,5.07
2022-10-18T02:42:35.164Z,4.43
2022-10-18T02:43:43.371Z,4.22
2022-10-18T02:44:46.619Z,4.05
2022-10-18T02:45:51.493Z,4.78
2022-10-18T02:46:55.031Z,4.65
2022-10-18T02:47:57.318Z,4.10
2022-10-18T02:49:06.772Z,4.45
2022-10-18T02:50:14.739Z,4.32
2022-10-18T02:51:25.305Z,4.45
2022-10-18T02:52:36.361Z,4.90
2022-10-18T02:53:54.482Z,3.63
2022-10-18T03:00:34.371Z,4.10
2022-10-18T03:03:06.586Z,3.80
2022-10-18T03:06:12.860Z,4.22
2022-10-18T03:07:24.086Z,4.00
2022-10-18T03:08:55.388Z,4.15
2022-10-18T03:10:25.767Z,4.18
2022-10-18T03:11:56.614Z,4.65
2022-10-18T03:13:06.453Z,4.40
2022-10-18T03:14:22.188Z,4.35
2022-10-18T03:15:24.568Z,3.95
2022-10-18T03:16:35.017Z,4.55
2022-10-18T03:17:46.119Z,4.03
2022-10-18T03:18:56.647Z,4.15
2022-10-18T03:20:01.657Z,3.67
2022-10-18T03:21:06.694Z,3.92
2022-10-18T03:22:10.285Z,4.30
2022-10-18T03:23:24.555Z,4.20
2022-10-18T03:25:05.380Z,4.35
2022-10-18T03:26:08.951Z,4.03
2022-10-18T03:27:21.991Z,4.10
2022-10-18T03:30:35.592Z,4.57
2022-10-18T03:32:14.417Z,3.70
2022-10-18T03:33:16.853Z,3.55
2022-10-18T03:34:47.947Z,4.20
2022-10-18T03:36:05.395Z,4.05
2022-10-18T03:37:23.629Z,3.92
2022-10-18T03:38:31.928Z,3.90
2022-10-18T03:40:02.741Z,3.60
2022-10-18T03:41:05.976Z,3.70
2022-10-18T03:42:15.214Z,3.65
2022-10-18T03:43:51.040Z,3.10
2022-10-18T03:45:44.484Z,3.25
2022-10-18T03:46:35.476Z,4.20
2022-10-18T03:47:37.729Z,4.10
2022-10-18T03:50:16.886Z,3.75
2022-10-18T03:51:24.594Z,3.60
2022-10-18T04:01:35.076Z,3.42
2022-10-18T04:04:03.167Z,3.65
2022-10-18T04:05:13.622Z,3.50
2022-10-18T04:09:36.313Z,3.80
2022-10-18T04:11:13.103Z,3.22
2022-10-18T04:12:34.893Z,2.72
2022-10-18T04:13:37.705Z,3.20
2022-10-18T04:14:55.662Z,3.63
2022-10-18T04:33:04.529Z,3.58
2022-10-18T04:34:17.263Z,3.35
2022-10-18T04:38:14.561Z,3.42
2022-10-18T04:39:23.802Z,3.47
2022-10-18T04:40:26.040Z,4.00
2022-10-18T04:41:35.098Z,3.13
2022-10-18T04:42:37.423Z,3.28
2022-10-18T04:45:26.178Z,3.30
2022-10-18T04:46:33.392Z,3.70
2022-10-18T04:47:42.487Z,3.60
2022-10-18T04:49:21.517Z,2.75
2022-10-18T04:50:31.390Z,3.33
2022-10-18T04:51:45.013Z,3.33
2022-10-18T04:53:25.764Z,3.58
2022-10-18T04:54:36.082Z,3.65
2022-10-18T04:56:12.465Z,3.15
2022-10-18T04:57:55.199Z,3.70
2022-10-18T04:59:32.582Z,3.10
2022-10-18T05:00:44.565Z,4.07
2022-10-18T05:03:25.356Z,3.20
2022-10-18T05:04:36.306Z,4.13
2022-10-18T05:06:03.285Z,4.00
2022-10-18T05:08:46.183Z,3.45
2022-10-18T05:09:54.584Z,4.00
2022-10-18T05:12:46.271Z,3.53
2022-10-18T05:14:05.507Z,3.20
2022-10-18T05:15:26.527Z,3.60
2022-10-18T05:16:44.866Z,3.15
2022-10-18T05:17:53.142Z,3.28
2022-10-18T05:18:56.448Z,3.60
2022-10-18T05:21:16.463Z,4.17
2022-10-18T05:22:45.792Z,2.85
2022-10-18T05:23:55.475Z,3.80
2022-10-18T05:25:24.301Z,3.97
2022-10-18T05:26:32.545Z,3.47
2022-10-18T05:28:10.718Z,4.47
2022-10-18T05:29:37.582Z,5.20
2022-10-18T05:36:24.131Z,3.67
2022-10-18T05:37:37.501Z,3.03
2022-10-18T05:39:43.705Z,3.40
2022-10-18T05:41:24.261Z,3.65
2022-10-18T05:43:14.897Z,3.70
2022-10-18T05:44:34.825Z,4.07
2022-10-18T05:46:16.059Z,3.30
2022-10-18T05:47:44.471Z,3.90
2022-10-18T05:50:12.474Z,3.25
2022-10-18T05:51:17.349Z,3.50
2022-10-18T05:53:35.331Z,3.85
2022-10-18T05:55:44.750Z,3.40
2022-10-18T05:57:35.615Z,3.95
2022-10-18T05:59:16.175Z,2.97
2022-10-18T06:01:25.912Z,3.30
2022-10-18T06:07:35.726Z,3.35
2022-10-18T06:11:43.586Z,3.60
2022-10-18T06:14:05.519Z,3.20
2022-10-18T06:15:45.304Z,3.55
2022-10-18T06:33:23.684Z,3.80
2022-10-18T06:34:51.281Z,3.90
2022-10-18T06:42:03.059Z,4.07
2022-10-18T06:43:25.014Z,3.63
2022-10-18T06:44:43.767Z,3.45
2022-10-18T06:45:55.204Z,3.90
2022-10-18T06:47:14.374Z,4.30
2022-10-18T06:48:17.086Z,3.80
2022-10-18T06:49:25.321Z,3.47
2022-10-18T06:50:34.816Z,3.40
2022-10-18T06:51:55.556Z,3.33
2022-10-18T06:53:15.707Z,4.10
2022-10-18T06:54:18.879Z,3.30
2022-10-18T06:55:27.439Z,3.40
2022-10-18T06:57:10.838Z,3.60
2022-10-18T06:58:22.404Z,3.40
2022-10-18T06:59:35.148Z,3.03
2022-10-18T07:01:16.052Z,3.60
2022-10-18T07:03:33.925Z,3.08
2022-10-18T07:04:45.506Z,4.00
2022-10-18T07:06:24.982Z,3.83
2022-10-18T07:07:56.436Z,3.30
2022-10-18T07:10:26.273Z,3.88
2022-10-18T07:11:37.099Z,3.17
2022-10-18T07:12:43.875Z,3.50
2022-10-18T07:13:54.652Z,3.35
2022-10-18T07:15:08.960Z,3.35
2022-10-18T07:18:25.302Z,3.45
2022-10-18T07:19:45.903Z,3.70
2022-10-18T07:21:34.069Z,2.90
2022-10-18T07:22:38.332Z,2.85
2022-10-18T07:23:56.905Z,3.67
2022-10-18T07:25:15.857Z,4.07
2022-10-18T07:26:35.533Z,3.08
2022-10-18T07:27:43.648Z,4.15
2022-10-18T07:28:55.279Z,3.70
2022-10-18T07:33:45.399Z,3.70
2022-10-18T07:35:15.626Z,3.65
2022-10-18T07:38:34.851Z,3.33
2022-10-18T07:40:06.152Z,3.70
2022-10-18T07:43:04.593Z,3.67
2022-10-18T07:44:07.420Z,3.33
2022-10-18T07:47:35.423Z,3.00
2022-10-18T07:49:13.478Z,3.08
2022-10-18T07:50:15.902Z,3.58
2022-10-18T07:51:24.411Z,3.60
2022-10-18T07:52:56.783Z,3.63
2022-10-18T07:54:18.366Z,3.42
2022-10-18T07:55:26.603Z,3.40
2022-10-18T07:56:42.987Z,3.40
2022-10-18T07:58:05.239Z,3.97
2022-10-18T08:03:47.375Z,4.00
2022-10-18T08:06:27.515Z,3.75
2022-10-18T08:10:14.322Z,3.08
2022-10-18T08:11:35.830Z,2.80
2022-10-18T08:12:44.272Z,3.03
2022-10-18T08:15:37.307Z,3.08
2022-10-18T08:17:04.796Z,3.50
2022-10-18T08:18:14.305Z,3.10
2022-10-18T08:19:24.959Z,2.70
2022-10-18T08:20:46.502Z,2.78
2022-10-18T08:21:54.023Z,3.30
2022-10-18T08:23:00.511Z,3.88
2022-10-18T08:24:25.867Z,3.83
2022-10-18T08:25:52.525Z,3.50
2022-10-18T08:27:25.792Z,3.53
2022-10-18T08:30:47.610Z,2.72
2022-10-18T08:32:36.154Z,2.90
2022-10-18T08:34:46.895Z,2.70
2022-10-18T08:35:55.634Z,3.17
2022-10-18T08:37:01.616Z,3.00
2022-10-18T08:38:05.841Z,2.70
2022-10-18T08:39:45.516Z,3.03
2022-10-18T08:40:55.794Z,3.70
2022-10-18T08:45:55.605Z,2.97
2022-10-18T08:47:16.134Z,2.85
2022-10-18T08:48:26.187Z,3.80
2022-10-18T08:49:38.201Z,3.28
2022-10-18T08:50:55.619Z,3.38
2022-10-18T08:52:06.108Z,3.42
2022-10-18T08:53:56.118Z,3.58
2022-10-18T08:55:12.734Z,3.50
2022-10-18T08:56:24.590Z,3.58
2022-10-18T08:57:55.781Z,3.55
2022-10-18T08:59:07.743Z,3.80
2022-10-18T09:04:41.487Z,3.88
2022-10-18T09:06:19.875Z,3.30
2022-10-18T09:08:02.227Z,3.97
2022-10-18T09:09:37.072Z,4.50
2022-10-18T09:11:13.901Z,3.22
2022-10-18T09:13:34.387Z,3.15
2022-10-18T09:15:13.290Z,3.83
2022-10-18T09:16:26.528Z,3.38
2022-10-18T09:18:33.807Z,3.67
2022-10-18T09:20:25.759Z,3.70
2022-10-18T09:21:40.796Z,3.25
2022-10-18T09:22:55.828Z,3.22
2022-10-18T09:24:16.217Z,2.92
2022-10-18T09:25:26.579Z,3.33
2022-10-18T09:26:41.746Z,3.20
2022-10-18T09:28:14.537Z,3.92
2022-10-18T09:30:45.852Z,4.38
2022-10-18T09:32:13.916Z,3.60
2022-10-18T09:33:36.328Z,3.45
2022-10-18T09:35:06.748Z,3.45
2022-10-18T09:36:17.119Z,3.05
2022-10-18T09:37:56.740Z,3.00
2022-10-18T09:39:16.796Z,4.00
2022-10-18T09:40:47.516Z,2.88
2022-10-18T09:42:36.240Z,3.50
2022-10-18T09:51:13.731Z,3.88
2022-10-18T09:52:35.878Z,4.22
2022-10-18T09:54:07.105Z,4.05
2022-10-18T09:55:45.415Z,3.70
2022-10-18T09:57:44.668Z,3.78
2022-10-18T09:58:58.151Z,4.28
2022-10-18T10:01:03.710Z,3.60
2022-10-18T10:01:47.068Z,3.75
2022-10-18T10:03:26.796Z,3.92
2022-10-18T10:04:45.409Z,4.03
2022-10-18T10:06:13.978Z,3.85
2022-10-18T10:07:36.793Z,3.70
2022-10-18T10:08:55.566Z,3.50
2022-10-18T10:10:09.476Z,3.80
2022-10-18T10:12:08.305Z,3.85
2022-10-18T10:14:08.462Z,3.72
2022-10-18T10:15:31.201Z,4.40
2022-10-18T10:17:06.496Z,4.05
2022-10-18T10:18:35.977Z,3.50
2022-10-18T10:20:06.090Z,3.40
2022-10-18T10:21:16.602Z,3.83
2022-10-18T10:22:36.210Z,3.55
2022-10-18T10:24:27.362Z,3.85
2022-10-18T10:25:46.746Z,3.28
2022-10-18T10:27:45.249Z,3.20
2022-10-18T10:28:56.485Z,3.08
2022-10-18T10:30:36.415Z,3.30
2022-10-18T10:32:08.556Z,3.05
2022-10-18T10:33:37.857Z,3.42
2022-10-18T10:34:45.329Z,3.10
2022-10-18T10:36:07.109Z,3.15
2022-10-18T10:37:37.526Z,3.42
2022-10-18T10:38:46.807Z,2.92
2022-10-18T10:40:28.563Z,3.03
2022-10-18T10:41:36.659Z,3.25
2022-10-18T10:43:53.494Z,3.40
2022-10-18T10:45:16.810Z,3.10
2022-10-18T10:46:35.682Z,3.08
2022-10-18T10:47:38.175Z,3.70
2022-10-18T10:49:34.836Z,3.50
2022-10-18T10:50:57.807Z,3.50
2022-10-18T10:52:25.895Z,3.13
2022-10-18T10:53:46.140Z,3.20
2022-10-18T10:55:44.783Z,3.78
2022-10-18T10:56:56.499Z,2.90
2022-10-18T10:58:17.006Z,3.50
2022-10-18T10:59:55.823Z,3.33
2022-10-18T11:02:26.696Z,3.13
2022-10-18T11:04:46.574Z,3.67
2022-10-18T11:06:55.356Z,3.72
2022-10-18T11:08:19.382Z,3.30
2022-10-18T11:10:16.214Z,3.17
2022-10-18T11:11:36.744Z,3.45
2022-10-18T11:14:54.371Z,3.35
2022-10-18T11:16:17.603Z,3.70
2022-10-18T11:18:14.783Z,3.28
2022-10-18T11:20:34.945Z,3.70
2022-10-18T11:21:34.142Z,3.38
2022-10-18T11:23:27.850Z,3.30
2022-10-18T11:24:57.618Z,3.35
2022-10-18T11:26:48.828Z,3.00
2022-10-18T11:28:45.156Z,3.67
2022-10-18T11:30:44.552Z,3.35
2022-10-18T11:32:45.398Z,3.53
2022-10-18T11:34:27.394Z,2.90
2022-10-18T11:39:37.533Z,3.67
2022-10-18T11:47:46.066Z,3.38
2022-10-18T11:49:26.786Z,2.70
2022-10-18T11:50:55.755Z,3.35
2022-10-18T11:52:34.918Z,3.00
2022-10-18T11:54:16.777Z,3.10
2022-10-18T11:55:55.581Z,3.47
2022-10-18T11:57:54.347Z,3.28
2022-10-18T11:59:55.510Z,3.30
2022-10-18T12:01:44.435Z,3.22
2022-10-18T12:03:36.379Z,2.83
2022-10-18T12:05:29.491Z,3.30
2022-10-18T12:08:45.069Z,3.28
2022-10-18T12:09:56.159Z,3.13
2022-10-18T12:11:23.814Z,3.30
2022-10-18T12:12:46.244Z,3.85
2022-10-18T12:16:06.319Z,3.10
2022-10-18T12:17:44.255Z,3.78
2022-10-18T12:19:13.190Z,3.20
2022-10-18T12:24:15.040Z,3.05
2022-10-18T12:25:19.216Z,3.20
2022-10-18T12:35:44.573Z,3.42
2022-10-18T12:37:05.931Z,3.67
2022-10-18T12:38:36.412Z,3.08
2022-10-18T12:40:25.189Z,3.80
2022-10-18T12:42:05.668Z,3.80
2022-10-18T12:43:36.962Z,3.28
2022-10-18T12:44:48.124Z,3.42
2022-10-18T12:46:56.213Z,3.08
2022-10-18T12:49:16.454Z,3.30
2022-10-18T12:51:26.964Z,3.40
2022-10-18T12:53:54.241Z,4.13
2022-10-18T12:54:46.571Z,3.25
2022-10-18T12:56:55.232Z,3.30
2022-10-18T12:58:44.449Z,3.72
2022-10-18T12:59:57.087Z,3.70
2022-10-18T13:01:36.343Z,3.25
2022-10-18T13:05:12.355Z,3.42
2022-10-18T13:09:25.208Z,2.72
2022-10-18T13:10:36.969Z,2.60
2022-10-18T13:14:59.175Z,3.30
2022-10-18T13:20:26.516Z,2.92
2022-10-18T13:22:05.130Z,3.15
2022-10-18T13:23:38.280Z,3.17
2022-10-18T13:25:15.423Z,3.45
2022-10-18T13:27:04.233Z,3.20
2022-10-18T13:29:36.207Z,3.55
2022-10-18T13:31:35.809Z,3.42
2022-10-18T13:33:55.993Z,3.50
2022-10-18T13:35:26.499Z,3.35
2022-10-18T13:37:17.382Z,2.92
2022-10-18T13:39:15.459Z,2.90
2022-10-18T13:40:35.706Z,2.85
2022-10-18T13:42:24.893Z,3.55
2022-10-18T13:44:27.117Z,3.40
2022-10-18T13:46:25.409Z,3.55
2022-10-18T13:47:53.437Z,3.35
2022-10-18T13:49:27.529Z,3.40
2022-10-18T13:50:46.455Z,3.50
2022-10-18T13:52:24.990Z,3.53
2022-10-18T13:54:05.273Z,3.50
2022-10-18T13:56:23.335Z,3.75
2022-10-18T13:58:24.830Z,3.83
2022-10-18T14:00:54.958Z,3.55
2022-10-18T14:02:58.698Z,3.90
2022-10-18T14:11:55.638Z,3.40
2022-10-18T14:13:04.525Z,3.70
2022-10-18T14:22:56.072Z,3.15
2022-10-18T14:23:59.057Z,3.15
2022-10-18T14:25:25.391Z,3.75
2022-10-18T14:30:38.139Z,3.38
2022-10-18T14:30:45.651Z,3.40
2022-10-18T14:39:44.647Z,3.53
2022-10-18T14:41:25.050Z,3.15
2022-10-18T14:44:36.202Z,3.90
2022-10-18T14:51:44.680Z,3.67
2022-10-18T14:52:55.963Z,3.78
2022-10-18T14:54:30.749Z,3.45
2022-10-18T14:55:39.155Z,2.75
2022-10-18T14:56:46.669Z,3.85
2022-10-18T14:57:51.517Z,3.40
2022-10-18T14:59:25.599Z,3.78
2022-10-18T15:03:06.727Z,3.70
2022-10-18T15:04:48.695Z,4.93
2022-10-18T15:07:38.319Z,3.45
2022-10-18T15:08:55.723Z,3.03
2022-10-18T15:12:40.863Z,3.55
2022-10-18T15:28:26.028Z,3.25
2022-10-18T15:29:58.418Z,3.40
2022-10-18T15:32:04.636Z,3.40
2022-10-18T15:39:44.850Z,3.67
2022-10-18T15:41:57.180Z,3.88
2022-10-18T15:43:08.194Z,6.22
2022-10-18T15:45:15.734Z,2.95
2022-10-18T15:50:24.626Z,3.70
2022-10-18T15:51:56.522Z,3.83
2022-10-18T15:53:46.538Z,3.83
2022-10-18T15:54:53.697Z,4.10
2022-10-18T15:56:47.010Z,3.83
2022-10-18T15:58:35.219Z,3.75
2022-10-18T16:00:37.578Z,3.38
2022-10-18T16:02:33.006Z,3.15
2022-10-18T16:03:55.981Z,3.40
2022-10-18T16:05:25.322Z,3.30
2022-10-18T16:09:44.975Z,3.72
2022-10-18T16:10:47.532Z,3.22
2022-10-18T16:12:05.756Z,3.70
2022-10-18T16:13:08.171Z,4.38
2022-10-18T16:15:05.640Z,3.55
2022-10-18T16:16:17.448Z,4.00
2022-10-18T16:18:17.173Z,3.28
2022-10-18T16:19:46.019Z,2.95
2022-10-18T16:20:56.429Z,3.78
2022-10-18T16:22:06.702Z,3.47
2022-10-18T16:23:26.544Z,3.75
2022-10-18T16:24:37.074Z,3.67
2022-10-18T16:25:49.487Z,4.00
2022-10-18T16:26:58.972Z,4.47
2022-10-18T16:28:23.943Z,3.50
2022-10-18T16:29:53.918Z,4.05
2022-10-18T16:32:56.675Z,4.15
2022-10-18T16:34:36.489Z,4.20
2022-10-18T16:35:45.993Z,4.47
2022-10-18T16:45:18.456Z,4.03
2022-10-18T16:49:27.598Z,5.25
2022-10-18T16:50:54.450Z,5.15
2022-10-18T16:52:13.755Z,5.05
2022-10-18T16:54:47.911Z,5.85
2022-10-18T16:56:25.607Z,6.13
2022-10-18T16:57:33.598Z,5.55
2022-10-18T16:58:37.068Z,6.07
2022-10-18T16:59:44.127Z,5.82
2022-10-18T17:00:47.751Z,6.25
2022-10-18T17:02:28.933Z,6.15
2022-10-18T17:03:46.225Z,6.32
2022-10-18T17:07:37.608Z,6.38
2022-10-18T17:09:25.800Z,6.57
2022-10-18T17:12:24.185Z,6.07
2022-10-18T17:13:37.974Z,6.22
2022-10-18T17:15:04.612Z,6.65
2022-10-18T17:16:25.930Z,6.60
2022-10-18T17:17:48.401Z,5.40
2022-10-18T17:18:59.445Z,5.93
2022-10-18T17:20:13.239Z,5.93
2022-10-18T17:21:35.312Z,6.70
2022-10-18T17:22:46.379Z,5.55
2022-10-18T17:24:34.507Z,6.60
2022-10-18T17:25:57.569Z,6.38
2022-10-18T17:27:08.818Z,6.40
2022-10-18T17:28:37.760Z,4.80
2022-10-18T17:29:47.142Z,6.20
2022-10-18T17:30:59.528Z,6.07
2022-10-18T17:32:06.033Z,5.93
2022-10-18T17:33:15.645Z,7.00
2022-10-18T17:35:13.728Z,7.35
2022-10-18T17:35:57.868Z,7.10
2022-10-18T17:37:08.911Z,6.05
2022-10-18T17:38:26.273Z,6.93
2022-10-18T17:39:37.366Z,8.25
2022-10-18T17:40:47.675Z,7.88
2022-10-18T17:41:57.482Z,7.60
2022-10-18T17:43:15.797Z,8.30
2022-10-18T17:44:19.214Z,8.18
2022-10-18T17:46:56.955Z,8.07
2022-10-18T17:48:23.747Z,7.40
2022-10-18T17:49:34.961Z,7.55
2022-10-18T17:51:07.259Z,7.35
2022-10-18T17:52:15.718Z,8.07
2022-10-18T17:53:23.779Z,7.70
2022-10-18T17:54:27.417Z,9.27
2022-10-18T17:55:40.859Z,9.73
2022-10-18T17:56:49.859Z,9.48
2022-10-18T17:58:14.313Z,9.23
2022-10-18T17:59:16.724Z,9.55
2022-10-18T18:00:23.527Z,7.60
2022-10-18T18:01:26.019Z,8.50
2022-10-18T18:02:37.219Z,10.82
2022-10-18T18:03:56.859Z,9.05
2022-10-18T18:05:28.558Z,10.15
2022-10-18T18:15:36.061Z,9.00
2022-10-18T18:21:06.764Z,11.40
2022-10-18T18:22:24.064Z,8.50
2022-10-18T18:23:26.445Z,8.90
2022-10-18T18:24:44.809Z,10.20
2022-10-18T18:25:56.202Z,9.60
2022-10-18T18:27:24.213Z,10.15
2022-10-18T18:28:33.785Z,9.70
2022-10-18T18:29:38.134Z,9.10
2022-10-18T18:30:40.843Z,8.88
2022-10-18T18:31:47.257Z,8.65
2022-10-18T18:32:55.301Z,8.88
2022-10-18T18:34:15.816Z,7.60
2022-10-18T18:37:57.365Z,10.52
2022-10-18T18:39:07.433Z,10.40
2022-10-18T18:42:13.304Z,8.73
2022-10-18T18:43:23.636Z,8.05
2022-10-18T18:44:56.729Z,8.95
2022-10-18T18:45:59.800Z,9.65
2022-10-18T18:47:10.872Z,9.77
2022-10-18T18:48:19.039Z,7.63
2022-10-18T18:51:12.865Z,7.03
2022-10-18T18:52:27.311Z,7.88
2022-10-18T18:54:05.549Z,7.70
2022-10-18T18:55:13.755Z,8.75
2022-10-18T18:56:18.125Z,8.55
2022-10-18T18:57:32.774Z,8.57
2022-10-18T18:58:38.115Z,8.07
2022-10-18T18:59:58.365Z,8.27
2022-10-18T19:01:09.017Z,9.18
2022-10-18T19:02:17.926Z,10.10
2022-10-18T19:03:23.365Z,10.48
2022-10-18T19:04:57.669Z,8.85
2022-10-18T19:06:45.241Z,9.52
2022-10-18T19:08:35.826Z,9.43
2022-10-18T19:10:16.568Z,8.48
2022-10-18T19:11:47.859Z,9.77
2022-10-18T19:13:44.395Z,7.72
2022-10-18T19:14:33.628Z,8.68
2022-10-18T19:15:36.129Z,9.10
2022-10-18T19:21:35.692Z,9.25
2022-10-18T19:22:55.622Z,9.52
2022-10-18T19:24:45.730Z,8.63
2022-10-18T19:26:37.135Z,8.10
2022-10-18T19:29:33.067Z,9.63
2022-10-18T19:30:36.781Z,7.63
2022-10-18T19:34:52.963Z,9.00
2022-10-18T19:36:08.086Z,9.15
2022-10-18T19:38:05.266Z,9.20
2022-10-18T19:44:06.950Z,9.82
2022-10-18T19:45:16.849Z,8.75
2022-10-18T19:46:27.388Z,8.00
2022-10-18T19:47:58.577Z,8.50
2022-10-18T19:49:09.817Z,9.52
2022-10-18T19:50:38.196Z,9.32
2022-10-18T19:52:06.611Z,9.57
2022-10-18T19:53:46.170Z,9.20
2022-10-18T19:54:57.289Z,9.20
2022-10-18T19:56:07.509Z,8.85
2022-10-18T19:57:18.781Z,8.63
2022-10-18T19:58:27.136Z,8.93
2022-10-18T19:59:37.029Z,8.70
2022-10-18T20:00:45.700Z,8.95
2022-10-18T20:01:56.803Z,7.90
2022-10-18T20:03:18.378Z,9.10
2022-10-18T20:04:26.840Z,7.65
2022-10-18T20:05:36.958Z,8.35
2022-10-18T20:07:07.961Z,8.45
2022-10-18T20:08:15.899Z,7.65
2022-10-18T20:09:34.833Z,8.13
2022-10-18T20:11:17.586Z,8.40
2022-10-18T20:12:36.596Z,9.05
2022-10-18T20:13:47.716Z,8.35
2022-10-18T20:15:04.910Z,9.38
2022-10-18T20:16:28.291Z,9.32
2022-10-18T20:17:57.974Z,8.73
2022-10-18T20:19:27.558Z,7.72
2022-10-18T20:20:35.586Z,7.65
2022-10-18T20:21:45.969Z,7.40
2022-10-18T20:22:57.526Z,7.82
2022-10-18T20:24:26.149Z,9.13
2022-10-18T20:25:36.868Z,7.72
2022-10-18T20:26:44.984Z,9.00
2022-10-18T20:28:34.185Z,8.40
2022-10-18T20:29:35.804Z,7.60
2022-10-18T20:30:38.611Z,8.20
2022-10-18T20:31:45.219Z,9.20
2022-10-18T20:32:47.628Z,9.90
2022-10-18T20:33:58.338Z,9.07
2022-10-18T20:35:26.512Z,9.45
2022-10-18T20:36:45.248Z,9.15
2022-10-18T20:37:47.867Z,8.52
2022-10-18T20:39:36.642Z,8.00
2022-10-18T20:40:45.041Z,7.50
2022-10-18T20:41:57.424Z,9.73
2022-10-18T20:43:26.964Z,8.25
2022-10-18T20:44:56.986Z,8.40
2022-10-18T20:46:05.934Z,8.65
2022-10-18T20:47:25.934Z,8.18
2022-10-18T20:48:33.759Z,8.50
2022-10-18T20:49:58.106Z,8.32
2022-10-18T20:51:05.543Z,8.07
2022-10-18T20:52:16.318Z,7.50
2022-10-18T20:53:56.858Z,8.38
2022-10-18T20:55:03.662Z,10.43
2022-10-18T20:58:15.756Z,17.30
2022-10-18T20:59:35.717Z,15.10
2022-10-18T21:00:54.997Z,14.10
2022-10-18T21:01:59.398Z,12.30
2022-10-18T21:03:09.478Z,10.55
2022-10-18T21:04:15.771Z,10.25
2022-10-18T21:06:01.573Z,9.85
2022-10-18T21:07:07.856Z,9.23
2022-10-18T21:08:23.247Z,9.63
2022-10-18T21:09:46.528Z,9.93
2022-10-18T21:11:15.560Z,10.48
2022-10-18T21:12:22.371Z,9.23
2022-10-18T21:14:25.049Z,10.90
2022-10-18T21:16:06.571Z,9.13
2022-10-18T21:17:19.502Z,9.55
2022-10-18T21:18:28.795Z,11.38
2022-10-18T21:19:57.781Z,9.65
2022-10-18T21:23:22.661Z,9.90
2022-10-18T21:24:37.383Z,10.20
2022-10-18T21:25:46.073Z,10.20
2022-10-18T21:27:34.080Z,10.07
2022-10-18T21:28:36.545Z,11.13
2022-10-18T21:29:56.147Z,9.98
2022-10-18T21:31:20.552Z,10.82
2022-10-18T21:32:25.803Z,9.73
2022-10-18T21:33:32.360Z,9.70
2022-10-18T21:35:25.876Z,10.75
2022-10-18T21:36:26.427Z,10.07
2022-10-18T21:38:25.376Z,10.10
2022-10-18T21:39:37.409Z,9.70
2022-10-18T21:41:34.536Z,9.90
2022-10-18T21:42:37.138Z,10.85
2022-10-18T21:44:25.882Z,9.68
2022-10-18T21:46:16.491Z,10.27
2022-10-18T21:47:45.642Z,10.20
2022-10-18T21:50:47.738Z,9.25
2022-10-18T21:51:57.430Z,9.48
2022-10-18T21:54:18.071Z,9.00
2022-10-18T21:55:26.451Z,9.75
2022-10-18T21:57:55.276Z,9.70
2022-10-18T21:58:59.234Z,10.60
2022-10-18T22:00:03.989Z,10.05
2022-10-18T22:01:35.260Z,9.70
2022-10-18T22:02:43.682Z,8.77
2022-10-18T22:04:06.494Z,10.70
2022-10-18T22:05:11.351Z,9.90
2022-10-18T22:07:05.495Z,10.73
2022-10-18T22:08:16.586Z,10.10
2022-10-18T22:11:23.282Z,9.07
2022-10-18T22:12:54.897Z,9.60
2022-10-18T22:14:06.119Z,8.32
2022-10-18T22:15:17.142Z,10.23
2022-10-18T22:16:37.551Z,8.80
2022-10-18T22:20:26.880Z,9.05
2022-10-18T22:23:08.758Z,8.43
2022-10-18T22:24:33.894Z,8.80
2022-10-18T22:25:47.490Z,9.15
2022-10-18T22:27:06.037Z,8.25
2022-10-18T22:28:19.851Z,8.82
2022-10-18T22:29:26.303Z,10.07
2022-10-18T22:30:28.632Z,8.23
2022-10-18T22:31:35.864Z,8.38
2022-10-18T22:32:38.231Z,9.20
2022-10-18T22:33:44.335Z,9.05
2022-10-18T22:34:46.751Z,9.00
2022-10-18T22:36:45.160Z,8.55
2022-10-18T22:39:27.777Z,8.70
2022-10-18T22:40:36.493Z,7.60
2022-10-18T22:41:46.579Z,8.45
2022-10-18T22:42:49.155Z,8.77
2022-10-18T22:45:35.906Z,8.85
2022-10-18T22:46:45.438Z,9.18
2022-10-18T22:47:47.758Z,9.50
2022-10-18T22:48:55.799Z,8.95
2022-10-18T22:50:05.617Z,9.00
2022-10-18T22:52:49.700Z,8.40
2022-10-18T22:53:58.835Z,9.55
2022-10-18T22:55:26.779Z,8.77
2022-10-18T22:56:35.155Z,8.70
2022-10-18T22:57:46.179Z,9.18
2022-10-18T22:58:49.787Z,9.50
2022-10-18T22:59:56.141Z,8.27
2022-10-18T23:01:07.158Z,7.93
2022-10-18T23:02:27.075Z,7.85
2022-10-18T23:03:55.475Z,7.25
2022-10-18T23:04:57.735Z,7.90
2022-10-18T23:06:46.104Z,7.35
2022-10-18T23:08:08.563Z,7.95
2022-10-18T23:11:07.863Z,8.30
2022-10-18T23:12:16.223Z,7.82
2022-10-18T23:13:53.601Z,7.97
2022-10-18T23:15:03.907Z,8.45
2022-10-18T23:16:07.754Z,8.02
2022-10-18T23:17:26.035Z,8.25
2022-10-18T23:18:36.801Z,9.05
2022-10-18T23:19:58.904Z,7.90
2022-10-18T23:21:15.045Z,9.95
2022-10-18T23:24:07.876Z,7.97
2022-10-18T23:25:16.341Z,8.20
2022-10-18T23:26:24.555Z,8.20
2022-10-18T23:27:28.028Z,7.97
2022-10-18T23:28:34.275Z,8.05
2022-10-18T23:29:36.647Z,9.05
2022-10-18T23:30:55.259Z,10.45
2022-10-18T23:33:47.740Z,9.63
2022-10-18T23:37:25.536Z,9.07
2022-10-18T23:39:43.601Z,9.23
2022-10-18T23:41:16.533Z,8.48
2022-10-18T23:42:28.303Z,7.70
2022-10-18T23:43:37.874Z,8.75
2022-10-18T23:45:18.425Z,7.15
2022-10-18T23:49:45.883Z,8.43
2022-10-18T23:50:54.207Z,7.95
2022-10-18T23:51:59.239Z,8.63
2022-10-18T23:53:07.104Z,7.63
2022-10-18T23:54:54.791Z,8.25
2022-10-18T23:56:04.388Z,9.05
2022-10-18T23:57:38.539Z,8.65
2022-10-18T23:59:17.579Z,8.30
